Airfield :
LOGIN :

Register | Disclaimer

   EN    FR    IT 

 










Legend :    VFR   Marginal VFR   IFR   Intensive IFR   Very Intensive IFR
Visi :
Ceiling :
>= 8 km
>= 3000ft
5 to 8 km
1000 to 3000 ft
1500m to 5 km
500 to 1000 ft
800 to 1500m
200 to 500 ft
< 800m
< 200 ft
Symbols :   Thunderstorms  Fog  Heavy snow  Heavy precipitations  Wind > 20 kt
SIGMETs :     Misc.  Thunderstorms  Icing  Turbulence  Mountain Waves  Volcanic Ashes






- Airport Elevation : 465 ft
- IATA code : LEJ


EDDP - Leipzig Halle

CURRENT METAR :
  • 251420Z 24006KT 9999 FEW043 00/M02 Q1004 R26R/2901// R26L/190195 NOSIG

EXPIRED METARs :
  • 251350Z 25007KT 9999 FEW040 00/M02 Q1004 R26R/2901// R26L/190195 NOSIG
  • 251320Z 25006KT 9999 SCT042 01/M02 Q1003 R26R/2901// R26L/190195 NOSIG
  • 251250Z 25006KT 9999 FEW049 01/M01 Q1003 R26R/2901// R26L/190195 NOSIG
  • 251220Z 23005KT CAVOK 01/M01 Q1003 R26R/2901// R26L/190195 NOSIG
  • 251150Z 21005KT CAVOK 01/M02 Q1003 R26R/2901// R26L/190195 NOSIG

TAF TAF EDDP
Valid from the 25 at 12:00 until the 26 at 12:00 UTC


251100Z 2512/2612 23005KT 9999 SCT035
BECMG 2600/2603 23010KT
BECMG 2603/2606 BKN010
TEMPO 2605/2611 1400 SN BKN004
BECMG 2610/2612 30008KT



MET'MAP, your aeronautical weather chart ! - Copyright ORBIFLY December 2007 - Disclaimer

ORBIFLY MET'MAP TEAM :

Programming & Development : Alexandra Zaïnal
Concept & original design : Baudouin d'Aumeries
Assistance for programming : Marc-Olivier Méhu
Technical & hardware support : Manuel Goepfert

Contact : metmap@orbifly.com




SOURCES & CREDITS :

   NOAA